Terminal Aerodrome Forecast
Issued by NWS

Home | Current Version | Previous Version | Text Only | Print | Product List | Glossary On
Versions: 1 2 3 4 5 6 7 8 9 10 11 12 13 14 15 16 17 18 19 20 21 22 23
415
FTUS44 KSJT 181243 AAA
TAFSOA
TAF AMD
KSOA 181243Z 1813/1912 VRB03KT 1/4SM FG OVC001
     FM181500 17002KT 3SM BR OVC005
     FM181700 18004KT P6SM BKN020 OVC250
     FM182300 18003KT P6SM OVC050=

USA.gov is the U.S. government's official web portal to all federal, state and local government web resources and services.